Time;durP1;ratioP1;P1;durP2;ratioP2;P2;SDS_P1;SDS_P2;PMS_P1;PMS_P2;Temp;Humidity;BMP_temperature;BMP_pressure;BME280_temperature;BME280_humidity;BME280_pressure;Samples;Min_cycle;Max_cycle;Signal;HPM_P1;HPM_P2
2022/07/10 00:01:49;;;;;;;6.13;2.05;;;;;;;20.14;47.30;102620.41;5050851;28;20045;-69
2022/07/10 00:04:19;;;;;;;3.28;1.42;;;;;;;20.15;47.00;102623.00;5052376;28;20029;-69
2022/07/10 00:06:49;;;;;;;3.42;1.55;;;;;;;20.18;47.13;102625.47;5051900;28;20423;-69
2022/07/10 00:09:15;;;;;;;3.88;1.90;;;;;;;20.16;46.99;102626.59;5051745;28;20055;-68
2022/07/10 00:11:42;;;;;;;4.95;1.60;;;;;;;20.14;47.27;102623.13;5051613;28;20037;-69
2022/07/10 00:14:13;;;;;;;2.75;1.52;;;;;;;20.12;46.99;102611.47;5052369;28;20040;-69
2022/07/10 00:16:39;;;;;;;4.40;1.50;;;;;;;20.11;47.33;102613.34;5051552;28;20041;-69
2022/07/10 00:19:06;;;;;;;3.42;1.70;;;;;;;20.10;47.02;102617.06;5051972;28;20045;-69
2022/07/10 00:21:32;;;;;;;3.42;1.70;;;;;;;20.06;47.25;102604.63;5050357;28;20044;-69
2022/07/10 00:24:00;;;;;;;5.25;2.20;;;;;;;20.00;47.08;102606.00;5052301;28;20041;-69
2022/07/10 00:26:27;;;;;;;3.28;1.48;;;;;;;19.96;47.36;102611.84;5052110;28;20041;-69
2022/07/10 00:28:54;;;;;;;4.07;2.17;;;;;;;19.96;47.72;102612.72;5051738;28;20067;-69
2022/07/10 00:31:21;;;;;;;3.80;1.73;;;;;;;20.01;47.90;102612.34;5051975;28;20055;-69
2022/07/10 00:33:50;;;;;;;6.50;1.80;;;;;;;20.04;47.87;102608.50;5052026;28;20040;-68
2022/07/10 00:36:17;;;;;;;5.15;1.77;;;;;;;20.04;47.61;102623.00;5051737;28;20450;-69
2022/07/10 00:38:44;;;;;;;7.80;1.90;;;;;;;20.04;47.66;102614.81;5051602;28;20041;-68
2022/07/10 00:41:10;;;;;;;3.85;1.52;;;;;;;20.06;47.68;102610.09;5051861;28;20079;-69
2022/07/10 00:43:57;;;;;;;4.70;1.70;;;;;;;20.03;47.82;102599.44;5051645;28;20276;-69
2022/07/10 00:46:27;;;;;;;4.20;2.10;;;;;;;20.03;47.41;102610.34;5051495;28;20069;-69
2022/07/10 00:48:55;;;;;;;4.00;1.63;;;;;;;19.97;47.41;102594.50;5051829;28;20037;-69
2022/07/10 00:51:26;;;;;;;4.85;1.55;;;;;;;19.94;47.84;102600.19;5052045;28;20128;-69
2022/07/10 00:53:58;;;;;;;3.65;2.17;;;;;;;19.93;47.83;102591.16;5051704;28;20041;-69
2022/07/10 00:56:26;;;;;;;3.75;1.60;;;;;;;19.93;47.93;102582.97;5051404;28;20571;-69
2022/07/10 00:58:53;;;;;;;3.45;1.52;;;;;;;19.92;47.71;102589.41;5050595;28;20400;-69
2022/07/10 01:01:22;;;;;;;4.07;1.58;;;;;;;19.90;47.62;102590.53;5051751;28;20048;-69
2022/07/10 01:03:53;;;;;;;2.47;1.35;;;;;;;19.86;47.70;102587.22;5051622;28;20047;-69
2022/07/10 01:06:19;;;;;;;5.75;2.03;;;;;;;19.80;47.53;102581.41;5051852;28;20525;-69
2022/07/10 01:08:46;;;;;;;6.40;1.80;;;;;;;19.74;48.00;102576.44;5051965;28;20051;-69
2022/07/10 01:11:14;;;;;;;3.42;1.30;;;;;;;19.71;47.67;102565.81;5052153;28;20141;-69
2022/07/10 01:13:43;;;;;;;3.30;1.20;;;;;;;19.70;48.13;102573.13;5052208;28;20053;-69
2022/07/10 01:16:11;;;;;;;3.67;1.60;;;;;;;19.69;47.68;102571.38;5050672;28;20033;-69
2022/07/10 01:18:38;;;;;;;8.45;1.80;;;;;;;19.69;48.02;102568.66;5050959;28;20041;-69
2022/07/10 01:21:06;;;;;;;6.65;1.65;;;;;;;19.65;47.64;102568.03;5053534;28;20487;-69
2022/07/10 01:23:33;;;;;;;3.92;1.55;;;;;;;19.60;47.77;102559.38;5054339;28;20048;-69
2022/07/10 01:26:02;;;;;;;4.30;1.70;;;;;;;19.57;47.97;102561.50;5054457;28;20531;-69
2022/07/10 01:28:29;;;;;;;4.25;1.50;;;;;;;19.53;48.19;102565.47;5054518;28;20041;-69
2022/07/10 01:30:56;;;;;;;5.45;1.70;;;;;;;19.50;47.93;102568.41;5054157;28;20048;-69
2022/07/10 01:33:27;;;;;;;4.03;1.45;;;;;;;19.46;48.15;102565.06;5054404;28;20055;-69
2022/07/10 01:35:53;;;;;;;5.30;1.23;;;;;;;19.43;47.91;102568.03;5054100;28;20510;-69
2022/07/10 01:38:20;;;;;;;6.97;2.35;;;;;;;19.41;47.93;102564.56;5054325;28;20045;-69
2022/07/10 01:40:46;;;;;;;4.60;1.50;;;;;;;19.38;48.22;102563.94;5054546;28;20045;-68
2022/07/10 01:43:16;;;;;;;9.77;1.85;;;;;;;19.33;48.29;102564.31;5054789;28;20052;-68
2022/07/10 01:45:44;;;;;;;6.20;1.70;;;;;;;19.29;48.01;102560.94;5054704;28;20055;-68
2022/07/10 01:48:10;;;;;;;5.82;1.60;;;;;;;19.24;48.25;102562.31;5054696;28;20120;-68
2022/07/10 01:50:38;;;;;;;5.88;1.90;;;;;;;19.22;48.39;102561.56;5054554;28;20039;-68
2022/07/10 01:53:08;;;;;;;4.22;1.50;;;;;;;19.16;48.51;102559.34;5054573;28;20037;-68
2022/07/10 01:55:35;;;;;;;4.50;1.60;;;;;;;19.12;48.19;102560.56;5053702;28;20590;-68
2022/07/10 01:58:02;;;;;;;5.25;2.00;;;;;;;19.12;48.67;102555.13;5052648;28;20542;-68
2022/07/10 02:00:28;;;;;;;8.20;1.63;;;;;;;19.10;48.63;102552.53;5053940;28;20124;-68
2022/07/10 02:05:40;;;;;;;4.85;1.85;;;;;;;19.07;49.12;102555.50;5054203;28;20072;-68
2022/07/10 02:08:07;;;;;;;4.68;2.00;;;;;;;19.07;49.24;102551.91;5054527;28;20033;-69
2022/07/10 02:10:34;;;;;;;5.38;2.03;;;;;;;19.05;49.12;102547.44;5054465;28;20041;-69
2022/07/10 02:13:02;;;;;;;4.25;1.60;;;;;;;19.01;49.42;102556.84;5054463;28;20037;-68
2022/07/10 02:15:29;;;;;;;7.95;2.50;;;;;;;18.98;49.70;102548.94;5053581;28;20051;-68
2022/07/10 02:17:55;;;;;;;4.78;2.30;;;;;;;18.98;49.46;102551.66;5054451;28;20406;-68
2022/07/10 02:20:22;;;;;;;6.75;2.40;;;;;;;18.96;49.75;102550.03;5054789;28;20052;-68
2022/07/10 02:22:50;;;;;;;5.50;1.77;;;;;;;18.96;49.56;102553.63;5054381;28;20380;-69
2022/07/10 02:25:17;;;;;;;6.97;2.03;;;;;;;18.96;49.50;102550.91;5054627;28;20284;-68
2022/07/10 02:27:43;;;;;;;5.43;2.00;;;;;;;18.95;49.85;102546.44;5054667;28;20045;-69
2022/07/10 02:30:10;;;;;;;4.85;2.53;;;;;;;18.96;49.89;102550.91;5054435;28;20044;-69
2022/07/10 02:32:39;;;;;;;4.47;2.03;;;;;;;18.96;50.23;102544.59;5053899;28;20037;-69
2022/07/10 02:35:06;;;;;;;7.90;1.90;;;;;;;18.93;50.05;102553.00;5054394;28;20053;-68
2022/07/10 02:37:33;;;;;;;5.20;2.00;;;;;;;18.89;50.06;102546.06;5054831;28;20048;-68
2022/07/10 02:39:59;;;;;;;4.47;2.08;;;;;;;18.89;50.65;102537.91;5054380;28;20522;-68
2022/07/10 02:42:32;;;;;;;3.72;1.70;;;;;;;18.89;50.68;102543.34;5054164;28;20490;-69
2022/07/10 02:44:58;;;;;;;8.38;2.40;;;;;;;18.90;50.32;102539.63;5054515;28;20087;-68
2022/07/10 02:47:25;;;;;;;6.90;2.70;;;;;;;18.92;50.67;102543.97;5051698;28;20426;-68
2022/07/10 02:49:52;;;;;;;6.47;2.50;;;;;;;18.91;50.19;102544.97;5051924;28;20463;-68
2022/07/10 02:52:18;;;;;;;5.03;2.22;;;;;;;18.91;50.10;102544.97;5054379;28;20040;-68
2022/07/10 02:54:50;;;;;;;5.75;1.90;;;;;;;18.89;50.34;102536.03;5054667;28;20055;-69
2022/07/10 02:57:17;;;;;;;6.22;2.53;;;;;;;18.91;50.64;102544.97;5054316;28;20433;-69
2022/07/10 02:59:44;;;;;;;7.55;2.08;;;;;;;18.91;50.65;102535.94;5054327;28;20128;-69
2022/07/10 03:02:11;;;;;;;5.55;2.00;;;;;;;18.93;50.17;102542.13;5052997;28;20041;-69
2022/07/10 03:04:42;;;;;;;5.60;2.28;;;;;;;18.97;50.48;102540.88;5053905;28;20037;-69
2022/07/10 03:07:08;;;;;;;3.90;1.95;;;;;;;19.02;50.43;102541.38;5052636;28;20331;-69
2022/07/10 03:09:35;;;;;;;4.72;2.05;;;;;;;19.08;50.52;102537.31;5052529;28;20411;-69
2022/07/10 03:12:02;;;;;;;5.88;2.47;;;;;;;19.10;50.50;102538.03;5053584;28;20136;-69
2022/07/10 03:14:31;;;;;;;5.93;2.25;;;;;;;19.10;50.34;102540.75;5052892;28;20041;-69
2022/07/10 03:16:58;;;;;;;7.18;2.10;;;;;;;19.14;50.69;102539.53;5053459;28;20052;-68
2022/07/10 03:19:25;;;;;;;8.52;2.20;;;;;;;19.16;50.35;102537.53;5053674;28;20041;-69
2022/07/10 03:21:51;;;;;;;5.03;2.10;;;;;;;19.19;50.51;102526.41;5053308;28;20048;-69
2022/07/10 03:24:46;;;;;;;6.80;2.35;;;;;;;19.17;50.59;102528.38;5053324;28;20044;-69
2022/07/10 03:27:13;;;;;;;6.82;2.72;;;;;;;19.18;50.56;102528.25;5052263;28;20049;-69
2022/07/10 03:29:40;;;;;;;5.78;2.50;;;;;;;19.16;50.17;102532.09;5051622;28;20144;-69
2022/07/10 03:32:08;;;;;;;5.38;2.38;;;;;;;19.12;50.42;102526.03;5052215;28;20041;-69
2022/07/10 03:34:35;;;;;;;7.28;3.15;;;;;;;19.08;50.42;102529.13;5051694;28;20080;-69
2022/07/10 03:37:02;;;;;;;6.63;2.80;;;;;;;19.04;50.63;102525.78;5052558;28;20052;-69
2022/07/10 03:39:29;;;;;;;7.25;2.58;;;;;;;18.99;50.91;102528.88;5050928;28;20056;-69
2022/07/10 03:41:55;;;;;;;4.30;2.47;;;;;;;19.00;51.11;102519.72;5052215;28;20041;-69
2022/07/10 03:44:26;;;;;;;9.48;2.67;;;;;;;18.95;50.93;102511.06;5051597;28;20060;-69
2022/07/10 03:46:53;;;;;;;6.55;2.88;;;;;;;18.95;50.86;102516.50;5052594;28;20044;-70
2022/07/10 03:49:19;;;;;;;8.85;2.75;;;;;;;18.96;51.38;102515.50;5052531;28;20480;-70
2022/07/10 03:51:46;;;;;;;5.78;2.33;;;;;;;18.98;51.43;102524.44;5052282;28;20045;-70
2022/07/10 03:55:08;;;;;;;6.45;2.88;;;;;;;18.97;51.34;102519.97;5052768;28;20036;-69
2022/07/10 04:00:32;;;;;;;7.07;2.97;;;;;;;18.96;51.19;102520.97;5052440;28;20372;-70
2022/07/10 04:03:02;;;;;;;6.35;2.70;;;;;;;18.92;51.17;102518.59;5052048;28;20033;-69
2022/07/10 04:05:30;;;;;;;4.45;2.63;;;;;;;18.93;51.50;102518.47;5052342;28;20136;-69
2022/07/10 04:07:57;;;;;;;7.55;3.35;;;;;;;18.96;51.47;102520.97;5052722;28;20048;-69
2022/07/10 04:10:25;;;;;;;7.63;2.83;;;;;;;19.01;51.29;102523.31;5052800;28;20041;-69
2022/07/10 04:12:55;;;;;;;5.85;3.00;;;;;;;19.05;51.72;102516.63;5052523;28;20583;-69
2022/07/10 04:15:23;;;;;;;7.93;2.97;;;;;;;19.04;51.53;102518.47;5052330;28;20467;-71
2022/07/10 04:17:50;;;;;;;8.63;2.90;;;;;;;19.03;51.43;102521.34;5050699;28;20037;-69
2022/07/10 04:20:17;;;;;;;6.75;2.83;;;;;;;19.01;51.47;102518.72;5050566;28;20044;-69
2022/07/10 04:22:47;;;;;;;5.93;2.75;;;;;;;18.99;51.24;102519.84;5051470;28;20087;-69
2022/07/10 04:25:14;;;;;;;5.80;2.35;;;;;;;18.98;51.62;102515.38;5051863;28;20037;-70
2022/07/10 04:27:41;;;;;;;7.93;2.35;;;;;;;18.98;51.34;102513.53;5051973;28;20064;-69
2022/07/10 04:30:08;;;;;;;7.57;2.80;;;;;;;19.00;51.41;102517.00;5051762;28;20051;-70
2022/07/10 04:32:38;;;;;;;10.88;2.58;;;;;;;19.02;51.58;102511.44;5051183;28;20120;-71
2022/07/10 04:35:05;;;;;;;7.13;2.70;;;;;;;19.05;51.41;102517.50;5051596;28;20041;-70
2022/07/10 04:37:34;;;;;;;9.57;2.83;;;;;;;19.09;51.91;102517.25;5051688;28;20056;-70
2022/07/10 04:40:01;;;;;;;13.80;3.00;;;;;;;19.09;51.71;102523.56;5051672;28;20067;-70
2022/07/10 04:42:29;;;;;;;6.50;2.70;;;;;;;19.11;51.51;102516.13;5051345;28;20056;-70
2022/07/10 04:44:56;;;;;;;5.05;2.40;;;;;;;19.11;51.57;102512.53;5051334;28;20116;-69
2022/07/10 04:47:22;;;;;;;7.70;3.85;;;;;;;19.13;51.81;102518.72;5051485;28;20041;-69
2022/07/10 04:49:49;;;;;;;5.97;3.35;;;;;;;19.15;51.53;102519.47;5051590;28;20479;-69
2022/07/10 04:52:18;;;;;;;7.47;2.70;;;;;;;19.19;51.43;102512.78;5051642;28;20068;-69
2022/07/10 04:54:44;;;;;;;6.25;2.72;;;;;;;19.21;51.55;102516.25;5052427;28;20048;-69
2022/07/10 04:57:11;;;;;;;12.50;3.58;;;;;;;19.23;52.00;102517.00;5055086;28;20044;-69
2022/07/10 04:59:37;;;;;;;8.43;2.65;;;;;;;19.24;51.86;102519.59;5054861;28;20117;-69
2022/07/10 05:02:04;;;;;;;4.40;2.72;;;;;;;19.27;51.63;102518.47;5055579;28;20067;-69
2022/07/10 05:04:31;;;;;;;9.13;2.85;;;;;;;19.30;52.03;102526.41;5055406;28;20116;-69
2022/07/10 05:06:57;;;;;;;7.82;2.50;;;;;;;19.35;51.58;102529.66;5054177;28;20037;-69
2022/07/10 05:09:24;;;;;;;8.65;3.00;;;;;;;19.36;51.58;102529.53;5054174;28;20055;-69
2022/07/10 05:11:51;;;;;;;5.63;2.60;;;;;;;19.38;51.91;102537.56;5055038;28;20394;-69
2022/07/10 05:14:22;;;;;;;6.90;2.60;;;;;;;19.39;51.61;102524.81;5055402;28;20045;-69
2022/07/10 05:16:49;;;;;;;5.03;2.67;;;;;;;19.40;52.02;102526.53;5054882;28;20484;-68
2022/07/10 05:19:15;;;;;;;3.85;2.65;;;;;;;19.42;51.62;102530.00;5055364;28;20041;-69
2022/07/10 05:21:42;;;;;;;9.82;2.80;;;;;;;19.45;51.58;102522.44;5055020;28;20041;-69
2022/07/10 05:24:13;;;;;;;11.40;2.42;;;;;;;19.49;51.99;102528.50;5055145;28;20076;-70
2022/07/10 05:26:39;;;;;;;8.60;2.50;;;;;;;19.50;52.01;102525.66;5054897;28;20550;-69
2022/07/10 05:29:06;;;;;;;8.82;3.10;;;;;;;19.51;51.58;102521.09;5054911;28;20025;-71
2022/07/10 05:31:32;;;;;;;6.38;2.63;;;;;;;19.52;51.52;102523.72;5055439;28;20048;-70
2022/07/10 05:34:01;;;;;;;8.65;2.70;;;;;;;19.53;51.80;102530.91;5054732;28;20399;-70
2022/07/10 05:36:28;;;;;;;8.82;2.83;;;;;;;19.54;51.48;102532.63;5054995;28;20047;-71
2022/07/10 05:38:54;;;;;;;5.32;2.50;;;;;;;19.57;51.98;102531.50;5054778;28;20527;-71
2022/07/10 05:41:21;;;;;;;7.65;2.88;;;;;;;19.61;51.82;102542.03;5053659;28;20071;-69
2022/07/10 05:43:49;;;;;;;7.93;2.88;;;;;;;19.67;51.93;102538.78;5054578;28;20045;-69
2022/07/10 05:46:15;;;;;;;8.02;2.63;;;;;;;19.70;51.68;102529.50;5054482;28;20049;-69
2022/07/10 05:48:42;;;;;;;7.03;2.97;;;;;;;19.73;51.73;102521.06;5055441;28;20144;-69
2022/07/10 05:51:09;;;;;;;8.18;2.55;;;;;;;19.76;51.74;102523.53;5054901;28;20048;-68
2022/07/10 05:53:57;;;;;;;7.13;2.63;;;;;;;19.82;51.54;102533.94;5054242;28;20044;-68
2022/07/10 05:56:24;;;;;;;7.47;2.50;;;;;;;19.87;51.33;102533.53;5054248;28;20114;-68
2022/07/10 05:58:50;;;;;;;6.90;2.40;;;;;;;19.89;51.76;102528.81;5053638;28;20502;-68
2022/07/10 06:01:17;;;;;;;6.28;2.28;;;;;;;19.92;51.89;102532.16;5054843;28;20037;-68
2022/07/10 06:03:48;;;;;;;5.40;2.75;;;;;;;19.99;51.52;102533.38;5054555;28;20041;-68
2022/07/10 06:06:15;;;;;;;7.32;2.55;;;;;;;20.05;51.69;102531.13;5053558;28;20044;-69
2022/07/10 06:08:43;;;;;;;6.65;2.83;;;;;;;20.09;51.75;102535.34;5054736;28;20491;-68
2022/07/10 06:11:10;;;;;;;13.80;2.40;;;;;;;20.11;51.21;102527.91;5054463;28;20041;-68
2022/07/10 06:13:40;;;;;;;8.85;2.70;;;;;;;20.14;51.10;102533.09;5054458;28;20048;-69
2022/07/10 06:16:07;;;;;;;7.43;2.38;;;;;;;20.19;51.25;102534.44;5054415;28;20047;-68
2022/07/10 06:18:33;;;;;;;6.10;2.47;;;;;;;20.23;51.09;102535.91;5054402;28;20041;-69
2022/07/10 06:21:00;;;;;;;7.35;2.30;;;;;;;20.26;51.60;102537.50;5054429;28;20087;-68
2022/07/10 06:23:30;;;;;;;7.18;2.50;;;;;;;20.28;51.06;102536.38;5049394;28;20042;-67
2022/07/10 06:25:57;;;;;;;7.80;2.35;;;;;;;20.31;51.43;102532.53;5034260;28;20064;-68
2022/07/10 06:28:23;;;;;;;6.60;2.60;;;;;;;20.35;51.09;102538.59;5034516;28;20388;-67
2022/07/10 06:30:50;;;;;;;7.75;2.40;;;;;;;20.40;50.99;102541.81;5048402;28;20044;-67
2022/07/10 06:33:27;;;;;;;10.88;2.60;;;;;;;20.45;51.23;102534.97;5052593;28;20453;-66
2022/07/10 06:35:54;;;;;;;5.78;2.42;;;;;;;20.52;51.31;102527.13;5052882;28;20057;-67
2022/07/10 06:38:20;;;;;;;8.77;2.22;;;;;;;20.59;51.30;102522.84;5053434;28;20048;-68
2022/07/10 06:40:47;;;;;;;6.32;3.10;;;;;;;20.66;51.21;102526.78;5053200;28;20025;-68
2022/07/10 06:43:15;;;;;;;7.38;2.42;;;;;;;20.74;51.11;102520.66;5052844;28;20045;-68
2022/07/10 06:45:42;;;;;;;7.47;2.33;;;;;;;20.83;51.10;102526.19;5052648;28;20112;-68
2022/07/10 06:48:09;;;;;;;8.00;2.45;;;;;;;20.89;50.61;102528.38;5051236;28;20032;-67
2022/07/10 06:50:35;;;;;;;6.68;2.15;;;;;;;20.93;50.57;102531.72;5052893;28;20052;-68
2022/07/10 06:53:07;;;;;;;6.97;2.38;;;;;;;20.98;50.66;102529.44;5052953;28;20383;-67
2022/07/10 06:55:34;;;;;;;6.00;2.45;;;;;;;21.01;50.41;102520.97;5052917;28;20072;-70
2022/07/10 06:58:01;;;;;;;8.45;1.90;;;;;;;21.03;50.50;102523.56;5052554;28;20033;-68
2022/07/10 07:00:28;;;;;;;6.45;1.90;;;;;;;21.06;50.37;102526.03;5053299;28;20044;-67
2022/07/10 07:02:56;;;;;;;6.95;1.83;;;;;;;21.09;50.03;102528.47;5053546;28;20505;-67
2022/07/10 07:05:23;;;;;;;5.85;1.80;;;;;;;21.08;50.31;102527.63;5052407;28;20110;-68
2022/07/10 07:07:49;;;;;;;4.70;1.60;;;;;;;21.10;50.28;102533.81;5051294;28;20075;-68
2022/07/10 07:10:16;;;;;;;6.43;1.98;;;;;;;21.12;49.95;102533.66;5052446;28;20037;-68
2022/07/10 07:12:44;;;;;;;5.60;1.85;;;;;;;21.11;50.10;102527.34;5052354;28;20045;-67
2022/07/10 07:15:10;;;;;;;7.88;1.90;;;;;;;21.11;49.92;102531.94;5051070;28;20056;-68
2022/07/10 07:23:15;;;;;;;6.43;2.05;;;;;;;21.14;50.10;102531.66;5052257;28;20083;-67
2022/07/10 07:25:46;;;;;;;4.97;1.88;;;;;;;21.16;49.97;102535.13;5052258;28;20095;-67
2022/07/10 07:28:18;;;;;;;8.02;1.92;;;;;;;21.17;50.14;102536.84;5051947;28;20491;-67
2022/07/10 07:30:49;;;;;;;7.50;2.28;;;;;;;21.15;49.98;102541.59;5052165;28;20609;-67
2022/07/10 07:33:20;;;;;;;5.85;1.38;;;;;;;21.18;50.06;102538.59;5052060;28;20083;-68
2022/07/10 07:35:46;;;;;;;9.40;2.42;;;;;;;21.17;49.76;102548.66;5051913;28;20132;-68
2022/07/10 07:38:13;;;;;;;5.88;2.25;;;;;;;21.16;49.55;102540.59;5051897;28;20043;-68
2022/07/10 07:40:40;;;;;;;8.02;2.05;;;;;;;21.16;49.76;102540.59;5052181;28;20045;-68
2022/07/10 07:43:11;;;;;;;7.07;2.03;;;;;;;21.16;49.75;102536.00;5051858;28;20055;-68
2022/07/10 07:45:38;;;;;;;4.85;2.30;;;;;;;21.19;49.59;102543.06;5051902;28;20063;-67
2022/07/10 07:48:04;;;;;;;6.10;2.17;;;;;;;21.18;49.65;102539.44;5051810;28;20407;-68
2022/07/10 07:50:34;;;;;;;5.72;2.15;;;;;;;21.20;49.69;102542.91;5052173;28;20037;-67
2022/07/10 07:53:02;;;;;;;5.68;2.08;;;;;;;21.23;49.49;102539.06;5051569;28;20443;-68
2022/07/10 07:55:30;;;;;;;8.25;1.55;;;;;;;21.28;49.27;102542.25;5051696;28;20439;-67
2022/07/10 07:57:57;;;;;;;7.28;1.80;;;;;;;21.33;49.55;102541.84;5051338;28;20040;-68
2022/07/10 08:00:26;;;;;;;3.65;1.60;;;;;;;21.38;49.33;102534.97;5051592;28;20045;-67
2022/07/10 08:03:00;;;;;;;5.78;2.03;;;;;;;21.38;49.27;102537.69;5051421;28;20045;-68
2022/07/10 08:05:27;;;;;;;5.65;2.10;;;;;;;21.39;49.45;102536.69;5051155;28;20053;-67
2022/07/10 08:07:57;;;;;;;5.93;1.88;;;;;;;21.40;49.61;102538.41;5051336;28;20045;-67
2022/07/10 08:10:26;;;;;;;5.82;2.00;;;;;;;21.47;49.35;102527.78;5050631;28;20084;-66
2022/07/10 08:12:57;;;;;;;7.00;1.85;;;;;;;21.50;49.38;102536.59;5051531;28;20048;-66
2022/07/10 08:15:24;;;;;;;13.90;3.83;;;;;;;21.54;49.75;102534.44;5051400;28;20049;-66
2022/07/10 08:17:52;;;;;;;6.47;2.05;;;;;;;21.59;49.51;102536.78;5050689;28;20045;-66
2022/07/10 08:20:19;;;;;;;7.72;2.28;;;;;;;21.65;49.66;102530.75;5051291;28;20041;-66
2022/07/10 08:22:51;;;;;;;7.80;2.40;;;;;;;21.71;49.66;102530.19;5050001;28;20057;-66
2022/07/10 08:25:26;;;;;;;5.15;2.13;;;;;;;21.73;49.32;102536.38;5051367;28;20037;-66
2022/07/10 08:27:52;;;;;;;9.23;2.58;;;;;;;21.72;49.37;102534.66;5050833;28;20041;-65
2022/07/10 08:30:19;;;;;;;8.45;1.98;;;;;;;21.72;49.76;102542.84;5050455;28;20402;-65
2022/07/10 08:32:46;;;;;;;4.57;1.95;;;;;;;21.73;49.48;102536.38;5051291;28;20127;-66
2022/07/10 08:35:13;;;;;;;5.88;2.40;;;;;;;21.71;49.37;102530.19;5050376;28;20033;-66
2022/07/10 08:37:41;;;;;;;4.97;2.47;;;;;;;21.70;49.37;102533.94;5050109;28;20049;-66
2022/07/10 08:40:10;;;;;;;6.05;2.22;;;;;;;21.67;49.32;102537.81;5051226;28;20256;-66
2022/07/10 08:42:37;;;;;;;5.03;2.00;;;;;;;21.64;49.37;102535.34;5051299;28;20069;-66
2022/07/10 08:45:05;;;;;;;4.95;2.00;;;;;;;21.65;49.72;102538.97;5051219;28;20065;-66
2022/07/10 08:47:36;;;;;;;8.57;2.80;;;;;;;21.65;49.94;102539.81;5051444;28;20061;-65
2022/07/10 08:50:16;;;;;;;4.55;2.55;;;;;;;21.67;49.94;102535.06;5051143;28;20060;-65
2022/07/10 08:53:00;;;;;;;7.22;1.80;;;;;;;21.69;49.64;102532.19;5050996;28;20052;-65
2022/07/10 08:55:27;;;;;;;7.05;2.50;;;;;;;21.76;49.76;102538.84;5050663;28;20218;-65
2022/07/10 08:57:55;;;;;;;6.35;2.03;;;;;;;21.78;49.96;102543.16;5051017;28;20072;-65
2022/07/10 09:00:23;;;;;;;5.75;1.92;;;;;;;21.81;49.83;102542.88;5051128;28;20128;-65
2022/07/10 09:02:54;;;;;;;6.97;3.10;;;;;;;21.82;49.73;102538.28;5050009;28;20059;-65
2022/07/10 09:05:21;;;;;;;9.18;2.30;;;;;;;21.81;49.46;102537.41;5050681;28;20511;-65
2022/07/10 09:07:48;;;;;;;5.95;2.50;;;;;;;21.82;49.60;102539.13;5050917;28;20120;-65
2022/07/10 09:10:14;;;;;;;9.23;2.60;;;;;;;21.86;49.72;102531.50;5050597;28;20033;-65
2022/07/10 09:12:56;;;;;;;8.43;3.13;;;;;;;21.92;49.81;102533.69;5050954;28;20037;-65
2022/07/10 09:15:32;;;;;;;5.60;2.65;;;;;;;21.99;49.75;102529.38;5050921;28;20053;-66
2022/07/10 09:18:05;;;;;;;6.03;2.40;;;;;;;22.06;49.79;102522.34;5050924;28;20129;-65
2022/07/10 09:20:34;;;;;;;7.50;2.60;;;;;;;22.17;49.64;102532.28;5051009;28;20044;-65
2022/07/10 09:23:21;;;;;;;4.70;2.00;;;;;;;22.27;49.79;102533.16;5050093;28;20116;-65
2022/07/10 09:25:49;;;;;;;8.90;2.53;;;;;;;22.37;49.75;102519.50;5030991;28;20037;-65
2022/07/10 09:28:19;;;;;;;4.97;2.60;;;;;;;22.46;49.60;102513.13;5031270;28;20073;-65
2022/07/10 09:30:46;;;;;;;8.50;2.80;;;;;;;22.57;49.40;102521.19;5031193;28;20439;-66
2022/07/10 09:33:29;;;;;;;7.70;2.80;;;;;;;22.68;49.56;102503.72;5030933;28;20148;-65
2022/07/10 09:36:11;;;;;;;6.47;2.25;;;;;;;22.79;49.44;102507.16;5031097;28;20120;-66
2022/07/10 09:38:44;;;;;;;4.90;1.90;;;;;;;22.90;49.08;102497.06;5031591;28;20112;-66
2022/07/10 09:41:14;;;;;;;8.20;3.03;;;;;;;22.99;49.09;102491.53;5032258;28;20037;-66
2022/07/10 09:43:45;;;;;;;14.02;2.15;;;;;;;23.10;48.85;102496.00;5034747;28;20050;-65
2022/07/10 09:46:12;;;;;;;5.40;1.67;;;;;;;23.20;48.43;102493.22;5034383;28;20050;-66
2022/07/10 09:48:39;;;;;;;10.00;2.15;;;;;;;23.27;48.12;102486.97;5034647;28;20048;-67
2022/07/10 09:51:09;;;;;;;5.22;2.15;;;;;;;23.35;47.95;102494.44;5034770;28;20045;-66
2022/07/10 09:53:43;;;;;;;7.75;2.53;;;;;;;23.39;48.03;102488.50;5044871;28;20045;-65
2022/07/10 09:56:13;;;;;;;5.17;2.67;;;;;;;23.43;47.77;102494.53;5054710;28;20077;-67
2022/07/10 09:58:40;;;;;;;5.90;2.10;;;;;;;23.50;47.83;102484.69;5054226;28;20045;-67
2022/07/10 10:01:08;;;;;;;7.75;2.42;;;;;;;23.58;47.57;102483.94;5054860;28;20033;-65
2022/07/10 10:03:39;;;;;;;7.20;2.15;;;;;;;23.69;47.31;102494.69;5053075;28;20444;-65
2022/07/10 10:06:15;;;;;;;5.60;2.13;;;;;;;23.80;47.20;102497.25;5053788;28;20513;-66
2022/07/10 10:08:49;;;;;;;5.63;2.15;;;;;;;23.96;47.21;102494.66;5055329;28;20131;-66
2022/07/10 10:11:20;;;;;;;3.53;1.42;;;;;;;24.13;47.16;102497.56;5056333;28;20505;-66
2022/07/10 10:13:53;;;;;;;4.90;1.73;;;;;;;24.24;46.73;102498.16;5055476;28;20033;-65
2022/07/10 10:16:20;;;;;;;5.53;1.85;;;;;;;24.32;46.61;102502.91;5055507;28;20057;-67
2022/07/10 10:21:33;;;;;;;8.18;2.05;;;;;;;24.41;46.13;102496.44;5056416;28;20572;-65
2022/07/10 10:24:02;;;;;;;5.40;2.28;;;;;;;24.44;46.02;102498.03;5054904;28;20049;-65
2022/07/10 10:26:29;;;;;;;5.35;2.38;;;;;;;24.47;45.51;102495.81;5053314;28;20037;-67
2022/07/10 10:28:58;;;;;;;3.63;1.77;;;;;;;24.47;45.69;102494.94;5053441;28;20044;-66
2022/07/10 10:31:27;;;;;;;4.78;2.22;;;;;;;24.48;45.26;102492.03;5053630;28;20045;-65
2022/07/10 10:34:00;;;;;;;4.68;1.95;;;;;;;24.49;45.14;102498.41;5053054;28;20048;-65
2022/07/10 10:36:44;;;;;;;9.00;3.17;;;;;;;24.50;45.03;102487.25;5054210;28;20098;-66
2022/07/10 10:39:18;;;;;;;4.55;2.42;;;;;;;24.52;44.93;102482.47;5054226;28;20063;-65
2022/07/10 10:41:53;;;;;;;5.65;2.60;;;;;;;24.55;44.85;102490.41;5054047;28;20075;-65
2022/07/10 10:44:21;;;;;;;5.67;2.67;;;;;;;24.53;44.87;102489.72;5054163;28;20455;-66
2022/07/10 10:46:56;;;;;;;5.72;2.80;;;;;;;24.54;44.86;102474.09;5054037;28;20487;-65
2022/07/10 10:49:25;;;;;;;12.50;2.78;;;;;;;24.59;44.97;102475.34;5054175;28;20506;-66
2022/07/10 10:52:03;;;;;;;4.80;2.35;;;;;;;24.68;44.93;102479.00;5053683;28;20037;-66
2022/07/10 10:54:50;;;;;;;5.85;2.00;;;;;;;24.78;44.71;102467.88;5048727;28;20067;-66
2022/07/10 10:57:18;;;;;;;6.03;2.30;;;;;;;24.89;44.62;102470.34;5053822;28;20489;-65
2022/07/10 10:59:50;;;;;;;4.43;1.98;;;;;;;25.00;44.32;102464.59;5053002;28;20059;-65
2022/07/10 11:02:40;;;;;;;4.47;2.13;;;;;;;25.06;44.11;102458.44;5052804;28;20049;-66
2022/07/10 11:05:18;;;;;;;4.90;1.85;;;;;;;25.17;43.89;102454.53;5049588;28;20065;-66
2022/07/10 11:07:55;;;;;;;5.68;1.73;;;;;;;25.31;43.79;102462.19;5051154;28;20454;-66
2022/07/10 11:10:39;;;;;;;5.18;1.50;;;;;;;25.42;43.53;102455.53;5052994;28;20111;-65
2022/07/10 11:13:17;;;;;;;2.80;1.40;;;;;;;25.54;43.38;102454.16;5052292;28;20120;-66
2022/07/10 11:15:44;;;;;;;2.22;1.50;;;;;;;25.61;43.06;102455.22;5052138;28;20037;-66
2022/07/10 11:18:13;;;;;;;5.18;1.90;;;;;;;25.74;42.90;102452.00;5052681;28;20037;-66
2022/07/10 11:20:49;;;;;;;3.97;1.50;;;;;;;25.85;42.87;102460.78;5052585;28;20072;-65
2022/07/10 11:23:43;;;;;;;4.47;1.30;;;;;;;25.97;42.66;102464.06;5052386;28;20033;-67
2022/07/10 11:26:16;;;;;;;2.75;1.50;;;;;;;26.06;42.58;102459.47;5052281;28;20043;-66
2022/07/10 11:28:53;;;;;;;3.30;1.70;;;;;;;26.12;42.46;102464.28;5052445;28;20371;-66
2022/07/10 11:31:21;;;;;;;2.15;1.50;;;;;;;26.17;42.62;102456.38;5052301;28;20052;-66
2022/07/10 11:33:51;;;;;;;2.30;1.40;;;;;;;26.16;42.16;102447.25;5052053;28;20040;-66
2022/07/10 11:36:31;;;;;;;4.32;1.60;;;;;;;26.15;41.99;102452.94;5050455;28;20442;-66
2022/07/10 11:39:16;;;;;;;5.22;1.83;;;;;;;26.17;42.14;102442.59;5052147;28;20045;-66
2022/07/10 11:41:47;;;;;;;3.63;1.58;;;;;;;26.19;42.04;102435.03;5052162;28;20419;-65
2022/07/10 11:44:20;;;;;;;2.40;1.83;;;;;;;26.20;42.17;102428.47;5052261;28;20406;-66
2022/07/10 11:46:49;;;;;;;6.18;1.70;;;;;;;26.24;42.42;102427.09;5051903;28;20554;-67
2022/07/10 11:49:17;;;;;;;4.20;1.58;;;;;;;26.31;42.14;102413.50;5050536;28;20048;-66